createdAt,value
2018-12-03T00:03:32.143Z,96970.72
2018-12-03T00:05:59.544Z,96977.38
2018-12-03T00:08:26.962Z,96974.53
2018-12-03T00:10:54.623Z,96975.15
2018-12-03T00:13:22.101Z,96977.26
2018-12-03T00:15:49.507Z,96976.23
2018-12-03T00:18:16.906Z,96970.92
2018-12-03T00:20:44.472Z,96972.95
2018-12-03T00:23:12.125Z,96967.71
2018-12-03T00:25:39.527Z,96972.88
2018-12-03T00:28:06.947Z,96962.75
2018-12-03T00:30:34.639Z,96973.52
2018-12-03T00:33:02.286Z,96971.36
2018-12-03T00:35:29.726Z,96965.95
2018-12-03T00:37:57.367Z,96964.81
2018-12-03T00:40:24.767Z,96970.79
2018-12-03T00:42:52.502Z,96972.09
2018-12-03T00:45:19.903Z,96973.25
2018-12-03T00:47:47.322Z,96973.25
2018-12-03T00:50:14.724Z,96976.23
2018-12-03T00:52:42.132Z,96978.66
2018-12-03T00:55:09.550Z,96988.12
2018-12-03T00:57:37.242Z,96983.41
2018-12-03T01:00:45.492Z,96982.27
2018-12-03T01:03:12.895Z,96981.78
2018-12-03T01:05:40.294Z,96982.69
2018-12-03T01:08:07.721Z,96992.59
2018-12-03T01:10:35.119Z,96994.09
2018-12-03T01:13:22.452Z,96992.71
2018-12-03T01:15:49.855Z,96995.47
2018-12-03T01:18:17.262Z,97003.52
2018-12-03T01:20:44.963Z,97003.67
2018-12-03T01:23:12.365Z,97009.77
2018-12-03T01:25:39.768Z,97015.08
2018-12-03T01:28:07.258Z,97010.25
2018-12-03T01:30:34.995Z,97025.44
2018-12-03T01:33:02.471Z,97016.13
2018-12-03T01:35:29.889Z,97021.83
2018-12-03T01:37:57.303Z,97017.48
2018-12-03T01:40:25.043Z,97014.36
2018-12-03T01:42:52.465Z,97016.79
2018-12-03T01:45:19.927Z,97013.45
2018-12-03T01:47:47.329Z,97014.56
2018-12-03T01:50:34.418Z,97015.29
2018-12-03T01:53:02.082Z,97015.38
2018-12-03T01:55:29.488Z,97014.53
2018-12-03T01:57:57.201Z,97016.00
2018-12-03T02:01:05.496Z,97019.48
2018-12-03T02:03:52.826Z,97009.49
2018-12-03T02:06:20.506Z,97011.66
2018-12-03T02:08:48.179Z,97004.57
2018-12-03T02:11:15.938Z,97012.16
2018-12-03T02:13:43.688Z,97007.00
2018-12-03T02:16:11.451Z,97006.88
2018-12-03T02:18:38.859Z,97008.17
2018-12-03T02:21:06.268Z,97006.73
2018-12-03T02:23:33.682Z,97012.98
2018-12-03T02:26:01.382Z,97018.50
2018-12-03T02:28:28.851Z,97010.42
2018-12-03T02:30:56.503Z,97010.81
2018-12-03T02:33:23.925Z,97009.67
2018-12-03T02:35:51.379Z,97005.32
2018-12-03T02:38:18.782Z,97013.06
2018-12-03T02:40:46.198Z,97012.34
2018-12-03T02:43:13.611Z,97011.05
2018-12-03T02:45:41.266Z,97013.70
2018-12-03T02:48:08.670Z,97009.46
2018-12-03T02:50:36.302Z,97011.53
2018-12-03T02:53:04.027Z,97013.36
2018-12-03T02:55:31.430Z,97021.08
2018-12-03T02:57:59.149Z,97015.77
2018-12-03T03:00:26.810Z,97011.14
2018-12-03T03:02:54.216Z,97010.48
2018-12-03T03:05:21.634Z,97007.18
2018-12-03T03:07:49.291Z,97007.88
2018-12-03T03:10:16.695Z,97009.86
2018-12-03T03:12:44.399Z,97006.73
2018-12-03T03:15:12.163Z,97011.20
2018-12-03T03:17:39.567Z,97006.48
2018-12-03T03:20:07.133Z,96999.53
2018-12-03T03:22:34.844Z,97006.19
2018-12-03T03:25:02.258Z,97002.47
2018-12-03T03:27:29.663Z,96997.66
2018-12-03T03:29:57.088Z,97005.23
2018-12-03T03:32:24.492Z,97022.43
2018-12-03T03:34:52.228Z,97010.72
2018-12-03T03:37:19.642Z,97012.77
2018-12-03T03:39:47.042Z,97019.19
2018-12-03T03:42:34.363Z,97025.16
2018-12-03T03:45:02.027Z,97021.59
2018-12-03T03:47:29.443Z,97018.42
2018-12-03T03:49:56.847Z,97029.80
2018-12-03T03:52:24.334Z,97030.02
2018-12-03T03:54:52.060Z,97030.46
2018-12-03T03:57:19.718Z,97023.27
2018-12-03T03:59:47.136Z,97028.91
2018-12-03T04:02:14.541Z,97012.33
2018-12-03T04:04:42.025Z,97015.91
2018-12-03T04:07:09.429Z,97026.14
2018-12-03T04:09:36.903Z,97039.03
2018-12-03T04:12:45.399Z,97051.22
2018-12-03T04:15:12.792Z,97037.85
2018-12-03T04:17:40.214Z,97030.16
2018-12-03T04:20:07.615Z,97029.22
2018-12-03T04:22:35.354Z,97021.59
2018-12-03T04:25:03.128Z,97022.80
2018-12-03T04:27:30.587Z,97018.56
2018-12-03T04:29:58.360Z,97011.86
2018-12-03T04:32:45.506Z,97008.02
2018-12-03T04:35:12.920Z,97011.41
2018-12-03T04:37:40.579Z,97009.44
2018-12-03T04:40:08.127Z,97005.59
2018-12-03T04:42:35.531Z,97016.06
2018-12-03T04:45:03.012Z,97011.47
2018-12-03T04:47:30.718Z,97017.96
2018-12-03T04:49:58.119Z,97007.36
2018-12-03T04:52:25.543Z,97006.55
2018-12-03T04:56:06.337Z,96998.27
2018-12-03T04:58:33.755Z,97000.91
2018-12-03T05:01:01.148Z,97004.60
2018-12-03T05:03:28.546Z,97010.25
2018-12-03T05:05:56.232Z,97012.08
2018-12-03T05:08:23.902Z,97014.63
2018-12-03T05:10:51.666Z,97012.44
2018-12-03T05:13:19.061Z,97016.22
2018-12-03T05:15:46.473Z,97019.79
2018-12-03T05:18:14.146Z,97021.73
2018-12-03T05:20:41.794Z,97014.39
2018-12-03T05:23:09.199Z,97022.41
2018-12-03T05:25:36.710Z,97031.65
2018-12-03T05:31:11.850Z,97020.00
2018-12-03T05:33:39.530Z,97026.25
2018-12-03T05:36:07.189Z,97026.91
2018-12-03T05:38:34.865Z,97023.48
2018-12-03T05:41:02.258Z,97032.34
2018-12-03T05:43:29.672Z,97042.24
2018-12-03T05:45:57.326Z,97044.50
2018-12-03T05:48:24.724Z,97058.28
2018-12-03T05:50:52.131Z,97054.23
2018-12-03T05:53:19.807Z,97052.75
2018-12-03T05:55:47.227Z,97054.38
2018-12-03T05:58:14.623Z,97059.16
2018-12-03T06:00:42.025Z,97054.50
2018-12-03T06:03:09.434Z,97048.49
2018-12-03T06:05:36.861Z,97049.70
2018-12-03T06:08:45.334Z,97048.38
2018-12-03T06:11:12.880Z,97053.54
2018-12-03T06:13:40.286Z,97048.86
2018-12-03T06:16:07.977Z,97038.55
2018-12-03T06:18:35.637Z,97046.95
2018-12-03T06:21:03.027Z,97047.52
2018-12-03T06:23:30.435Z,97061.97
2018-12-03T06:25:58.109Z,97058.57
2018-12-03T06:28:25.526Z,97066.17
2018-12-03T06:31:12.593Z,97060.02
2018-12-03T06:36:10.470Z,97053.77
2018-12-03T06:38:38.129Z,97044.59
2018-12-03T06:41:05.678Z,97033.20
2018-12-03T06:43:33.085Z,97044.67
2018-12-03T06:46:00.487Z,97046.02
2018-12-03T06:48:27.919Z,97041.83
2018-12-03T06:50:55.320Z,97042.19
2018-12-03T06:53:22.725Z,97044.62
2018-12-03T06:55:50.444Z,97037.59
2018-12-03T06:58:18.100Z,97053.23
2018-12-03T07:00:45.544Z,97046.94
2018-12-03T07:05:25.213Z,97056.06
2018-12-03T07:07:52.613Z,97071.13
2018-12-03T07:10:20.017Z,97069.48
2018-12-03T07:12:47.422Z,97072.79
2018-12-03T07:15:15.512Z,97071.61
2018-12-03T07:17:42.909Z,97065.43
2018-12-03T07:20:10.421Z,97072.34
2018-12-03T07:22:37.869Z,97069.78
2018-12-03T07:25:05.481Z,97078.02
2018-12-03T07:27:32.881Z,97075.76
2018-12-03T07:30:00.275Z,97082.42
2018-12-03T07:32:27.677Z,97085.04
2018-12-03T07:34:55.072Z,97073.71
2018-12-03T07:37:22.484Z,97080.34
2018-12-03T07:39:49.877Z,97088.16
2018-12-03T07:42:17.273Z,97081.20
2018-12-03T07:44:44.685Z,97089.80
2018-12-03T07:47:12.076Z,97083.20
2018-12-03T07:49:39.490Z,97096.30
2018-12-03T07:52:06.980Z,97092.44
2018-12-03T07:54:34.390Z,97089.63
2018-12-03T07:57:01.838Z,97087.88
2018-12-03T07:59:29.234Z,97084.18
2018-12-03T08:01:56.639Z,97081.90
2018-12-03T08:07:04.489Z,97084.27
2018-12-03T08:09:31.893Z,97090.13
2018-12-03T08:11:59.334Z,97089.55
2018-12-03T08:14:26.739Z,97086.42
2018-12-03T08:16:54.141Z,97089.06
2018-12-03T08:19:21.540Z,97094.92
2018-12-03T08:21:48.953Z,97084.55
2018-12-03T08:24:16.337Z,97086.91
2018-12-03T08:26:43.741Z,97090.66
2018-12-03T08:29:11.151Z,97083.53
2018-12-03T08:31:38.632Z,97076.25
2018-12-03T08:34:06.133Z,97081.09
2018-12-03T08:36:33.541Z,97081.41
2018-12-03T08:39:00.952Z,97080.77
2018-12-03T08:41:28.341Z,97080.73
2018-12-03T08:43:55.759Z,97081.83
2018-12-03T08:46:23.155Z,97092.92
2018-12-03T08:48:50.558Z,97092.48
2018-12-03T08:51:17.961Z,97098.59
2018-12-03T08:53:45.461Z,97094.68
2018-12-03T08:56:12.857Z,97091.14
2018-12-03T08:58:40.302Z,97090.69
2018-12-03T09:01:08.426Z,97085.81
2018-12-03T09:03:35.836Z,97093.45
2018-12-03T09:06:05.137Z,97090.48
2018-12-03T09:08:32.543Z,97095.15
2018-12-03T09:10:59.977Z,97096.73
2018-12-03T09:13:27.362Z,97087.28
2018-12-03T09:15:54.809Z,97095.59
2018-12-03T09:18:24.164Z,97093.46
2018-12-03T09:20:51.558Z,97098.66
2018-12-03T09:23:19.019Z,97096.60
2018-12-03T09:25:46.440Z,97096.23
2018-12-03T09:28:13.831Z,97104.98
2018-12-03T09:30:41.244Z,97108.77
2018-12-03T09:33:08.629Z,97111.03
2018-12-03T09:35:36.044Z,97099.34
2018-12-03T09:38:03.484Z,97098.92
2018-12-03T09:40:30.938Z,97104.36
2018-12-03T09:42:58.396Z,97102.55
2018-12-03T09:45:25.801Z,97106.20
2018-12-03T09:47:54.423Z,97104.74
2018-12-03T09:50:22.100Z,97116.03
2018-12-03T09:52:49.696Z,97101.76
2018-12-03T09:55:17.148Z,97100.53
2018-12-03T09:57:48.478Z,97092.89
2018-12-03T10:00:16.356Z,97084.61
2018-12-03T10:02:43.795Z,97079.21
2018-12-03T10:05:11.201Z,97072.23
2018-12-03T10:07:38.706Z,97077.20
2018-12-03T10:10:09.593Z,97071.30
2018-12-03T10:12:37.005Z,97066.05
2018-12-03T10:17:47.521Z,97054.77
2018-12-03T10:20:15.185Z,97030.92
2018-12-03T10:22:45.965Z,97035.83
2018-12-03T10:25:13.693Z,97025.39
2018-12-03T10:30:11.077Z,97014.37
2018-12-03T10:33:09.289Z,97010.70
2018-12-03T10:35:36.705Z,96999.81
2018-12-03T10:38:05.610Z,96999.56
2018-12-03T10:40:36.930Z,96999.69
2018-12-03T10:43:08.029Z,96981.14
2018-12-03T10:45:35.878Z,96966.22
2018-12-03T10:48:03.350Z,96990.61
2018-12-03T10:50:30.750Z,96984.31
2018-12-03T10:52:58.218Z,96980.67
2018-12-03T10:55:25.677Z,96978.44
2018-12-03T10:57:53.177Z,96987.70
2018-12-03T11:03:11.404Z,96974.59
2018-12-03T11:05:44.553Z,96967.11
2018-12-03T11:08:13.754Z,96963.12
2018-12-03T11:10:41.334Z,96963.08
2018-12-03T11:13:09.433Z,96969.41
2018-12-03T11:15:36.945Z,96968.67
2018-12-03T11:18:04.831Z,96968.30
2018-12-03T11:20:32.214Z,96966.70
2018-12-03T11:22:59.678Z,96964.61
2018-12-03T11:25:27.277Z,96968.78
2018-12-03T11:27:55.480Z,96963.98
2018-12-03T11:30:22.969Z,96965.31
2018-12-03T11:32:50.421Z,96960.65
2018-12-03T11:35:20.828Z,96965.85
2018-12-03T11:37:48.229Z,96965.14
2018-12-03T11:40:17.585Z,96971.02
2018-12-03T11:42:44.989Z,96967.82
2018-12-03T11:45:12.449Z,96962.38
2018-12-03T11:47:39.958Z,96961.27
2018-12-03T11:50:08.869Z,96954.28
2018-12-03T11:52:36.325Z,96957.78
2018-12-03T11:55:05.536Z,96954.53
2018-12-03T11:57:33.058Z,96957.78
2018-12-03T12:00:00.457Z,96953.13
2018-12-03T12:02:27.853Z,96949.28
2018-12-03T12:04:55.261Z,96947.05
2018-12-03T12:07:22.727Z,96948.30
2018-12-03T12:09:50.121Z,96946.13
2018-12-03T12:12:17.518Z,96941.48
2018-12-03T12:14:44.939Z,96940.00
2018-12-03T12:17:12.337Z,96927.59
2018-12-03T12:19:39.761Z,96924.63
2018-12-03T12:22:07.296Z,96917.41
2018-12-03T12:24:34.690Z,96921.69
2018-12-03T12:27:02.099Z,96899.13
2018-12-03T12:29:29.579Z,96911.23
2018-12-03T12:31:56.999Z,96901.03
2018-12-03T12:34:24.391Z,96910.06
2018-12-03T12:36:51.793Z,96912.68
2018-12-03T12:39:19.219Z,96914.30
2018-12-03T12:41:46.613Z,96918.00
2018-12-03T12:44:14.020Z,96921.31
2018-12-03T12:46:41.420Z,96918.70
2018-12-03T12:49:08.869Z,96918.50
2018-12-03T12:51:36.333Z,96918.58
2018-12-03T12:54:03.785Z,96916.49
2018-12-03T12:56:31.182Z,96910.97
2018-12-03T12:58:58.593Z,96915.56
2018-12-03T13:01:26.043Z,96911.50
2018-12-03T13:03:53.618Z,96903.72
2018-12-03T13:06:21.069Z,96902.97
2018-12-03T13:08:48.522Z,96893.05
2018-12-03T13:11:15.933Z,96903.80
2018-12-03T13:13:43.378Z,96905.69
2018-12-03T13:16:10.797Z,96915.34
2018-12-03T13:18:38.251Z,96917.20
2018-12-03T13:21:05.841Z,96918.43
2018-12-03T13:23:33.241Z,96919.67
2018-12-03T13:26:00.646Z,96907.84
2018-12-03T13:28:28.069Z,96880.33
2018-12-03T13:30:55.476Z,96887.38
2018-12-03T13:33:22.969Z,96884.69
2018-12-03T13:35:50.377Z,96871.41
2018-12-03T13:38:17.775Z,96881.28
2018-12-03T13:40:45.185Z,96880.06
2018-12-03T13:43:12.585Z,96879.02
2018-12-03T13:45:40.081Z,96874.48
2018-12-03T13:48:07.593Z,96877.61
2018-12-03T13:50:35.038Z,96880.46
2018-12-03T13:53:02.445Z,96885.73
2018-12-03T13:55:29.845Z,96873.62
2018-12-03T13:57:57.250Z,96877.77
2018-12-03T14:00:24.760Z,96874.48
2018-12-03T14:02:52.160Z,96878.77
2018-12-03T14:05:19.555Z,96871.50
2018-12-03T14:07:46.973Z,96870.17
2018-12-03T14:10:17.973Z,96862.49
2018-12-03T14:12:45.478Z,96865.61
2018-12-03T14:15:16.190Z,96864.75
2018-12-03T14:17:43.637Z,96871.96
2018-12-03T14:20:11.100Z,96874.44
2018-12-03T14:22:38.554Z,96881.02
2018-12-03T14:25:06.472Z,96885.63
2018-12-03T14:27:33.873Z,96891.61
2018-12-03T14:30:01.265Z,96891.09
2018-12-03T14:32:28.727Z,96894.61
2018-12-03T14:34:56.125Z,96902.05
2018-12-03T14:37:23.588Z,96898.53
2018-12-03T14:39:50.989Z,96895.77
2018-12-03T14:42:18.390Z,96883.98
2018-12-03T14:44:45.941Z,96890.73
2018-12-03T14:47:13.333Z,96887.66
2018-12-03T14:49:40.741Z,96882.80
2018-12-03T14:52:08.141Z,96880.93
2018-12-03T14:54:35.540Z,96879.84
2018-12-03T14:57:03.109Z,96885.20
2018-12-03T14:59:30.563Z,96889.61
2018-12-03T15:01:57.969Z,96883.06
2018-12-03T15:04:25.421Z,96877.67
2018-12-03T15:06:52.810Z,96873.80
2018-12-03T15:09:20.255Z,96868.49
2018-12-03T15:11:47.769Z,96867.40
2018-12-03T15:14:15.173Z,96870.65
2018-12-03T15:16:42.605Z,96871.20
2018-12-03T15:19:11.704Z,96867.45
2018-12-03T15:21:39.282Z,96855.42
2018-12-03T15:24:06.693Z,96850.91
2018-12-03T15:26:34.176Z,96843.88
2018-12-03T15:29:01.653Z,96848.75
2018-12-03T15:31:29.057Z,96850.91
2018-12-03T15:33:56.517Z,96855.82
2018-12-03T15:36:23.942Z,96871.11
2018-12-03T15:38:51.333Z,96864.70
2018-12-03T15:41:18.781Z,96873.30
2018-12-03T15:43:46.200Z,96873.16
2018-12-03T15:46:13.597Z,96872.62
2018-12-03T15:48:40.993Z,96870.72
2018-12-03T15:51:08.413Z,96876.36
2018-12-03T15:53:35.817Z,96864.06
2018-12-03T15:56:03.964Z,96863.31
2018-12-03T15:58:31.422Z,96858.72
2018-12-03T16:00:58.912Z,96857.14
2018-12-03T16:03:26.426Z,96853.63
2018-12-03T16:05:53.958Z,96850.91
2018-12-03T16:08:21.390Z,96848.31
2018-12-03T16:10:48.836Z,96847.75
2018-12-03T16:13:16.386Z,96837.91
2018-12-03T16:15:43.802Z,96841.62
2018-12-03T16:18:11.261Z,96854.23
2018-12-03T16:20:38.694Z,96844.19
2018-12-03T16:23:06.114Z,96840.55
2018-12-03T16:25:33.515Z,96836.63
2018-12-03T16:28:00.909Z,96832.86
2018-12-03T16:30:28.373Z,96817.98
2018-12-03T16:32:55.773Z,96812.25
2018-12-03T16:35:23.191Z,96820.31
2018-12-03T16:37:50.645Z,96818.28
2018-12-03T16:40:18.041Z,96807.80
2018-12-03T16:42:45.448Z,96805.47
2018-12-03T16:45:12.861Z,96812.18
2018-12-03T16:47:40.349Z,96831.60
2018-12-03T16:50:07.853Z,96816.97
2018-12-03T16:52:35.275Z,96812.98
2018-12-03T16:55:02.717Z,96795.36
2018-12-03T16:57:30.161Z,96792.95
2018-12-03T16:59:57.553Z,96804.45
2018-12-03T17:02:24.960Z,96788.81
2018-12-03T17:04:52.409Z,96785.34
2018-12-03T17:07:19.817Z,96787.29
2018-12-03T17:09:47.217Z,96795.36
2018-12-03T17:12:14.618Z,96783.95
2018-12-03T17:14:42.022Z,96785.10
2018-12-03T17:17:09.421Z,96779.13
2018-12-03T17:19:36.826Z,96785.34
2018-12-03T17:22:04.330Z,96789.63
2018-12-03T17:24:31.729Z,96783.01
2018-12-03T17:26:59.189Z,96769.26
2018-12-03T17:29:26.581Z,96760.97
2018-12-03T17:31:53.998Z,96756.18
2018-12-03T17:34:21.397Z,96753.98
2018-12-03T17:36:48.864Z,96754.93
2018-12-03T17:39:16.318Z,96749.27
2018-12-03T17:41:43.709Z,96744.25
2018-12-03T17:44:11.117Z,96739.22
2018-12-03T17:46:38.899Z,96728.23
2018-12-03T17:49:06.355Z,96736.23
2018-12-03T17:51:33.793Z,96733.39
2018-12-03T17:54:01.214Z,96728.47
2018-12-03T17:56:28.625Z,96734.34
2018-12-03T17:58:56.025Z,96726.48
2018-12-03T18:01:23.417Z,96721.63
2018-12-03T18:03:50.825Z,96727.36
2018-12-03T18:06:18.229Z,96724.90
2018-12-03T18:08:45.629Z,96723.80
2018-12-03T18:11:13.028Z,96726.11
2018-12-03T18:13:40.437Z,96718.06
2018-12-03T18:16:07.851Z,96720.09
2018-12-03T18:18:35.244Z,96725.70
2018-12-03T18:21:02.639Z,96720.89
2018-12-03T18:23:30.138Z,96720.52
2018-12-03T18:25:57.593Z,96715.59
2018-12-03T18:28:25.056Z,96716.68
2018-12-03T18:30:52.460Z,96711.02
2018-12-03T18:33:19.914Z,96718.27
2018-12-03T18:35:47.326Z,96731.30
2018-12-03T18:38:14.713Z,96730.06
2018-12-03T18:40:42.176Z,96730.27
2018-12-03T18:43:09.585Z,96732.15
2018-12-03T18:45:37.073Z,96730.20
2018-12-03T18:48:04.489Z,96730.20
2018-12-03T18:50:31.986Z,96721.53
2018-12-03T18:52:59.399Z,96715.30
2018-12-03T18:55:26.806Z,96707.45
2018-12-03T18:57:54.205Z,96703.13
2018-12-03T19:00:21.613Z,96692.31
2018-12-03T19:02:49.011Z,96690.43
2018-12-03T19:05:16.410Z,96709.47
2018-12-03T19:07:43.826Z,96716.75
2018-12-03T19:10:11.229Z,96723.52
2018-12-03T19:12:38.630Z,96718.94
2018-12-03T19:15:06.143Z,96737.41
2018-12-03T19:17:33.542Z,96767.00
2018-12-03T19:20:00.950Z,96763.80
2018-12-03T19:22:28.353Z,96770.42
2018-12-03T19:24:55.753Z,96770.70
2018-12-03T19:27:23.215Z,96773.53
2018-12-03T19:29:50.662Z,96782.55
2018-12-03T19:32:18.076Z,96802.52
2018-12-03T19:34:45.483Z,96809.14
2018-12-03T19:37:12.877Z,96828.69
2018-12-03T19:39:40.391Z,96839.30
2018-12-03T19:42:07.789Z,96832.47
2018-12-03T19:44:35.237Z,96846.86
2018-12-03T19:50:19.526Z,96858.63
2018-12-03T19:52:47.688Z,96869.73
2018-12-03T19:55:15.817Z,96861.16
2018-12-03T19:57:43.919Z,96863.11
2018-12-03T20:00:12.106Z,96870.70
2018-12-03T20:02:40.197Z,96879.03
2018-12-03T20:05:14.078Z,96884.76
2018-12-03T20:07:42.165Z,96890.11
2018-12-03T20:10:10.363Z,96897.48
2018-12-03T20:12:38.456Z,96912.00
2018-12-03T20:15:07.466Z,96919.09
2018-12-03T20:17:35.706Z,96934.16
2018-12-03T20:20:05.417Z,96934.77
2018-12-03T20:22:33.836Z,96931.34
2018-12-03T20:25:01.953Z,96942.47
2018-12-03T20:27:30.233Z,96961.34
2018-12-03T20:29:58.599Z,96971.58
2018-12-03T20:32:26.851Z,96985.63
2018-12-03T20:34:55.164Z,96992.17
2018-12-03T20:37:26.485Z,97003.01
2018-12-03T20:39:58.693Z,97003.48
2018-12-03T20:42:27.023Z,97010.63
2018-12-03T20:44:55.785Z,97035.55
2018-12-03T20:47:23.867Z,97047.22
2018-12-03T20:49:52.015Z,97050.11
2018-12-03T20:52:20.118Z,97059.21
2018-12-03T20:54:48.270Z,97077.61
2018-12-03T20:57:16.373Z,97083.52
2018-12-03T20:59:44.469Z,97094.46
2018-12-03T21:02:12.606Z,97105.20
2018-12-03T21:04:40.707Z,97107.39
2018-12-03T21:07:08.798Z,97127.17
2018-12-03T21:09:36.881Z,97128.09
2018-12-03T21:12:05.029Z,97134.19
2018-12-03T21:14:33.115Z,97131.43
2018-12-03T21:17:01.226Z,97139.03
2018-12-03T21:19:29.311Z,97150.31
2018-12-03T21:21:57.391Z,97160.08
2018-12-03T21:24:25.482Z,97167.19
2018-12-03T21:26:53.573Z,97169.34
2018-12-03T21:29:21.673Z,97172.81
2018-12-03T21:31:49.759Z,97174.05
2018-12-03T21:34:17.917Z,97186.15
2018-12-03T21:36:46.009Z,97193.16
2018-12-03T21:39:14.195Z,97196.02
2018-12-03T21:41:42.254Z,97193.62
2018-12-03T21:44:10.343Z,97197.76
2018-12-03T21:46:38.425Z,97201.92
2018-12-03T21:49:06.517Z,97213.06
2018-12-03T21:51:34.605Z,97222.70
2018-12-03T21:54:02.760Z,97226.98
2018-12-03T21:56:30.913Z,97236.19
2018-12-03T21:58:59.001Z,97245.48
2018-12-03T22:01:27.100Z,97247.53
2018-12-03T22:03:55.257Z,97249.61
2018-12-03T22:06:23.349Z,97250.09
2018-12-03T22:08:51.436Z,97257.09
2018-12-03T22:11:19.589Z,97259.51
2018-12-03T22:13:47.686Z,97265.36
2018-12-03T22:16:15.775Z,97272.27
2018-12-03T22:18:43.877Z,97272.02
2018-12-03T22:21:11.973Z,97275.03
2018-12-03T22:23:40.057Z,97275.80
2018-12-03T22:26:08.209Z,97286.50
2018-12-03T22:28:36.289Z,97288.98
2018-12-03T22:31:04.446Z,97285.20
2018-12-03T22:33:32.545Z,97283.68
2018-12-03T22:36:00.640Z,97289.59
2018-12-03T22:38:28.734Z,97297.59
2018-12-03T22:40:56.821Z,97307.23
2018-12-03T22:43:24.909Z,97306.70
2018-12-03T22:45:53.009Z,97312.53
2018-12-03T22:48:21.149Z,97313.59
2018-12-03T22:50:49.258Z,97318.73
2018-12-03T22:53:17.356Z,97312.48
2018-12-03T22:55:45.445Z,97309.16
2018-12-03T22:58:13.541Z,97314.61
2018-12-03T23:03:28.845Z,97318.00
2018-12-03T23:05:56.937Z,97326.08
2018-12-03T23:08:25.032Z,97327.33
2018-12-03T23:10:53.173Z,97329.77
2018-12-03T23:13:21.252Z,97322.88
2018-12-03T23:15:49.355Z,97319.18
2018-12-03T23:18:17.433Z,97326.30
2018-12-03T23:20:45.513Z,97328.95
2018-12-03T23:23:13.715Z,97331.73
2018-12-03T23:25:41.799Z,97336.94
2018-12-03T23:28:09.897Z,97331.73
2018-12-03T23:30:38.025Z,97328.39
2018-12-03T23:33:06.101Z,97327.33
2018-12-03T23:35:34.255Z,97331.15
2018-12-03T23:38:02.393Z,97338.83
2018-12-03T23:40:30.493Z,97349.16
2018-12-03T23:42:58.633Z,97345.81
2018-12-03T23:45:26.714Z,97343.27
2018-12-03T23:47:54.809Z,97342.94
2018-12-03T23:50:22.951Z,97349.01
2018-12-03T23:52:51.057Z,97341.30
2018-12-03T23:55:19.145Z,97348.19
2018-12-03T23:57:47.229Z,97347.63
